sensor_id;sensor_type;location;lat;lon;timestamp;P1;durP1;ratioP1;P2;durP2;ratioP2
64875;SDS011;51369;49.862;9.908;2023-05-10T00:00:07;2.92;;;2.65;;
64875;SDS011;51369;49.862;9.908;2023-05-10T00:02:38;3.17;;;2.20;;
64875;SDS011;51369;49.862;9.908;2023-05-10T00:05:04;2.65;;;2.40;;
64875;SDS011;51369;49.862;9.908;2023-05-10T00:07:30;4.18;;;2.72;;
64875;SDS011;51369;49.862;9.908;2023-05-10T00:09:55;5.25;;;2.03;;
64875;SDS011;51369;49.862;9.908;2023-05-10T00:12:20;4.22;;;2.47;;
64875;SDS011;51369;49.862;9.908;2023-05-10T00:14:46;3.13;;;2.75;;
64875;SDS011;51369;49.862;9.908;2023-05-10T00:17:11;2.95;;;2.47;;
64875;SDS011;51369;49.862;9.908;2023-05-10T00:19:36;4.30;;;2.40;;
64875;SDS011;51369;49.862;9.908;2023-05-10T00:22:02;2.70;;;1.95;;
64875;SDS011;51369;49.862;9.908;2023-05-10T00:24:28;6.25;;;2.13;;
64875;SDS011;51369;49.862;9.908;2023-05-10T00:26:53;3.83;;;2.20;;
64875;SDS011;51369;49.862;9.908;2023-05-10T00:29:18;5.68;;;2.50;;
64875;SDS011;51369;49.862;9.908;2023-05-10T00:31:44;4.13;;;1.90;;
64875;SDS011;51369;49.862;9.908;2023-05-10T00:34:10;3.45;;;1.52;;
64875;SDS011;51369;49.862;9.908;2023-05-10T00:36:35;3.55;;;2.20;;
64875;SDS011;51369;49.862;9.908;2023-05-10T00:39:01;3.20;;;2.33;;
64875;SDS011;51369;49.862;9.908;2023-05-10T00:41:28;5.05;;;2.20;;
64875;SDS011;51369;49.862;9.908;2023-05-10T00:43:57;5.18;;;2.30;;
64875;SDS011;51369;49.862;9.908;2023-05-10T00:46:23;2.35;;;2.00;;
64875;SDS011;51369;49.862;9.908;2023-05-10T00:48:48;2.75;;;2.25;;
64875;SDS011;51369;49.862;9.908;2023-05-10T00:51:14;2.20;;;2.00;;
64875;SDS011;51369;49.862;9.908;2023-05-10T00:53:39;3.25;;;2.35;;
64875;SDS011;51369;49.862;9.908;2023-05-10T00:56:05;2.28;;;1.90;;
64875;SDS011;51369;49.862;9.908;2023-05-10T00:58:31;3.92;;;2.15;;
64875;SDS011;51369;49.862;9.908;2023-05-10T01:00:57;3.05;;;2.33;;
64875;SDS011;51369;49.862;9.908;2023-05-10T01:03:23;4.22;;;2.20;;
64875;SDS011;51369;49.862;9.908;2023-05-10T01:05:49;4.22;;;2.53;;
64875;SDS011;51369;49.862;9.908;2023-05-10T01:08:15;3.22;;;2.10;;
64875;SDS011;51369;49.862;9.908;2023-05-10T01:10:41;3.63;;;2.25;;
64875;SDS011;51369;49.862;9.908;2023-05-10T01:13:07;2.40;;;2.20;;
64875;SDS011;51369;49.862;9.908;2023-05-10T01:15:33;5.55;;;2.95;;
64875;SDS011;51369;49.862;9.908;2023-05-10T01:17:58;2.00;;;1.88;;
64875;SDS011;51369;49.862;9.908;2023-05-10T01:20:25;5.18;;;2.15;;
64875;SDS011;51369;49.862;9.908;2023-05-10T01:23:04;4.53;;;2.10;;
64875;SDS011;51369;49.862;9.908;2023-05-10T01:29:09;5.00;;;2.05;;
64875;SDS011;51369;49.862;9.908;2023-05-10T01:32:00;5.65;;;2.40;;
64875;SDS011;51369;49.862;9.908;2023-05-10T01:37:30;2.95;;;2.10;;
64875;SDS011;51369;49.862;9.908;2023-05-10T01:40:17;1.90;;;1.80;;
64875;SDS011;51369;49.862;9.908;2023-05-10T01:42:55;1.77;;;1.67;;
64875;SDS011;51369;49.862;9.908;2023-05-10T01:45:33;1.80;;;1.70;;
64875;SDS011;51369;49.862;9.908;2023-05-10T01:48:08;1.52;;;1.42;;
64875;SDS011;51369;49.862;9.908;2023-05-10T01:50:36;1.63;;;1.50;;
64875;SDS011;51369;49.862;9.908;2023-05-10T01:53:08;0.80;;;0.80;;
64875;SDS011;51369;49.862;9.908;2023-05-10T01:55:39;1.73;;;1.08;;
64875;SDS011;51369;49.862;9.908;2023-05-10T01:58:13;1.50;;;0.95;;
64875;SDS011;51369;49.862;9.908;2023-05-10T02:00:42;1.20;;;1.10;;
64875;SDS011;51369;49.862;9.908;2023-05-10T02:03:09;0.80;;;0.80;;
64875;SDS011;51369;49.862;9.908;2023-05-10T02:05:36;0.80;;;0.80;;
64875;SDS011;51369;49.862;9.908;2023-05-10T02:08:05;0.80;;;0.80;;
64875;SDS011;51369;49.862;9.908;2023-05-10T02:10:32;1.25;;;0.90;;
64875;SDS011;51369;49.862;9.908;2023-05-10T02:12:59;1.20;;;0.65;;
64875;SDS011;51369;49.862;9.908;2023-05-10T02:15:27;0.85;;;0.70;;
64875;SDS011;51369;49.862;9.908;2023-05-10T02:17:54;3.72;;;0.52;;
64875;SDS011;51369;49.862;9.908;2023-05-10T02:20:22;0.75;;;0.75;;
64875;SDS011;51369;49.862;9.908;2023-05-10T02:22:51;0.70;;;0.70;;
64875;SDS011;51369;49.862;9.908;2023-05-10T02:25:19;0.80;;;0.80;;
64875;SDS011;51369;49.862;9.908;2023-05-10T02:27:46;1.50;;;0.77;;
64875;SDS011;51369;49.862;9.908;2023-05-10T02:30:13;0.70;;;0.70;;
64875;SDS011;51369;49.862;9.908;2023-05-10T02:32:39;0.80;;;0.80;;
64875;SDS011;51369;49.862;9.908;2023-05-10T02:35:06;3.15;;;0.82;;
64875;SDS011;51369;49.862;9.908;2023-05-10T02:37:33;0.90;;;0.80;;
64875;SDS011;51369;49.862;9.908;2023-05-10T02:40:02;0.93;;;0.85;;
64875;SDS011;51369;49.862;9.908;2023-05-10T02:42:31;1.17;;;0.63;;
64875;SDS011;51369;49.862;9.908;2023-05-10T02:45:00;1.23;;;0.80;;
64875;SDS011;51369;49.862;9.908;2023-05-10T02:47:28;3.80;;;0.80;;
64875;SDS011;51369;49.862;9.908;2023-05-10T02:49:54;1.92;;;0.50;;
64875;SDS011;51369;49.862;9.908;2023-05-10T02:52:27;0.60;;;0.60;;
64875;SDS011;51369;49.862;9.908;2023-05-10T02:54:56;0.50;;;0.50;;
64875;SDS011;51369;49.862;9.908;2023-05-10T02:57:30;0.50;;;0.50;;
64875;SDS011;51369;49.862;9.908;2023-05-10T02:59:58;1.75;;;0.77;;
64875;SDS011;51369;49.862;9.908;2023-05-10T03:02:25;0.57;;;0.57;;
64875;SDS011;51369;49.862;9.908;2023-05-10T03:04:51;0.77;;;0.60;;
64875;SDS011;51369;49.862;9.908;2023-05-10T03:07:16;0.50;;;0.50;;
64875;SDS011;51369;49.862;9.908;2023-05-10T03:09:45;0.60;;;0.60;;
64875;SDS011;51369;49.862;9.908;2023-05-10T03:18:06;0.57;;;0.55;;
64875;SDS011;51369;49.862;9.908;2023-05-10T03:20:36;2.42;;;0.60;;
64875;SDS011;51369;49.862;9.908;2023-05-10T03:25:53;0.73;;;0.73;;
64875;SDS011;51369;49.862;9.908;2023-05-10T03:28:20;1.42;;;0.63;;
64875;SDS011;51369;49.862;9.908;2023-05-10T03:30:47;4.03;;;0.60;;
64875;SDS011;51369;49.862;9.908;2023-05-10T03:33:14;2.03;;;0.75;;
64875;SDS011;51369;49.862;9.908;2023-05-10T03:35:43;1.08;;;0.60;;
64875;SDS011;51369;49.862;9.908;2023-05-10T03:38:11;1.80;;;0.75;;
64875;SDS011;51369;49.862;9.908;2023-05-10T03:40:37;0.60;;;0.50;;
64875;SDS011;51369;49.862;9.908;2023-05-10T03:43:02;0.95;;;0.70;;
64875;SDS011;51369;49.862;9.908;2023-05-10T03:45:28;0.50;;;0.50;;
64875;SDS011;51369;49.862;9.908;2023-05-10T03:47:53;1.02;;;0.70;;
64875;SDS011;51369;49.862;9.908;2023-05-10T03:50:19;1.00;;;0.80;;
64875;SDS011;51369;49.862;9.908;2023-05-10T03:52:45;2.30;;;0.65;;
64875;SDS011;51369;49.862;9.908;2023-05-10T03:55:10;0.70;;;0.70;;
64875;SDS011;51369;49.862;9.908;2023-05-10T03:57:36;0.50;;;0.50;;
64875;SDS011;51369;49.862;9.908;2023-05-10T04:00:02;0.88;;;0.60;;
64875;SDS011;51369;49.862;9.908;2023-05-10T04:02:39;1.10;;;0.57;;
64875;SDS011;51369;49.862;9.908;2023-05-10T04:05:05;0.55;;;0.55;;
64875;SDS011;51369;49.862;9.908;2023-05-10T04:07:31;0.65;;;0.65;;
64875;SDS011;51369;49.862;9.908;2023-05-10T04:09:57;2.05;;;0.60;;
64875;SDS011;51369;49.862;9.908;2023-05-10T04:12:22;0.63;;;0.60;;
64875;SDS011;51369;49.862;9.908;2023-05-10T04:14:48;3.75;;;0.80;;
64875;SDS011;51369;49.862;9.908;2023-05-10T04:17:13;0.68;;;0.60;;
64875;SDS011;51369;49.862;9.908;2023-05-10T04:19:38;1.10;;;0.70;;
64875;SDS011;51369;49.862;9.908;2023-05-10T04:22:04;1.08;;;0.80;;
64875;SDS011;51369;49.862;9.908;2023-05-10T04:24:29;4.78;;;0.85;;
64875;SDS011;51369;49.862;9.908;2023-05-10T04:26:54;0.65;;;0.65;;
64875;SDS011;51369;49.862;9.908;2023-05-10T04:29:20;0.85;;;0.85;;
64875;SDS011;51369;49.862;9.908;2023-05-10T04:31:46;3.90;;;0.80;;
64875;SDS011;51369;49.862;9.908;2023-05-10T04:34:11;3.17;;;1.00;;
64875;SDS011;51369;49.862;9.908;2023-05-10T04:36:36;0.95;;;0.75;;
64875;SDS011;51369;49.862;9.908;2023-05-10T04:39:02;2.05;;;0.98;;
64875;SDS011;51369;49.862;9.908;2023-05-10T04:41:29;0.93;;;0.80;;
64875;SDS011;51369;49.862;9.908;2023-05-10T04:43:55;2.80;;;0.70;;
64875;SDS011;51369;49.862;9.908;2023-05-10T04:46:20;0.88;;;0.80;;
64875;SDS011;51369;49.862;9.908;2023-05-10T04:48:46;1.45;;;0.90;;
64875;SDS011;51369;49.862;9.908;2023-05-10T04:51:12;0.95;;;0.93;;
64875;SDS011;51369;49.862;9.908;2023-05-10T04:53:37;3.88;;;1.00;;
64875;SDS011;51369;49.862;9.908;2023-05-10T04:56:03;7.97;;;1.20;;
64875;SDS011;51369;49.862;9.908;2023-05-10T04:58:29;1.73;;;0.93;;
64875;SDS011;51369;49.862;9.908;2023-05-10T05:00:54;2.78;;;0.80;;
64875;SDS011;51369;49.862;9.908;2023-05-10T05:03:19;2.55;;;1.15;;
64875;SDS011;51369;49.862;9.908;2023-05-10T05:05:45;1.20;;;1.10;;
64875;SDS011;51369;49.862;9.908;2023-05-10T05:08:10;6.95;;;1.15;;
64875;SDS011;51369;49.862;9.908;2023-05-10T05:10:36;0.93;;;0.93;;
64875;SDS011;51369;49.862;9.908;2023-05-10T05:13:01;1.00;;;1.00;;
64875;SDS011;51369;49.862;9.908;2023-05-10T05:15:26;1.85;;;1.10;;
64875;SDS011;51369;49.862;9.908;2023-05-10T05:17:52;1.00;;;1.00;;
64875;SDS011;51369;49.862;9.908;2023-05-10T05:20:17;1.17;;;1.02;;
64875;SDS011;51369;49.862;9.908;2023-05-10T05:22:44;3.92;;;1.30;;
64875;SDS011;51369;49.862;9.908;2023-05-10T05:25:10;1.45;;;1.15;;
64875;SDS011;51369;49.862;9.908;2023-05-10T05:27:36;0.90;;;0.90;;
64875;SDS011;51369;49.862;9.908;2023-05-10T05:30:02;1.30;;;1.20;;
64875;SDS011;51369;49.862;9.908;2023-05-10T05:32:28;3.38;;;1.10;;
64875;SDS011;51369;49.862;9.908;2023-05-10T05:34:53;1.40;;;1.30;;
64875;SDS011;51369;49.862;9.908;2023-05-10T05:37:19;2.65;;;1.55;;
64875;SDS011;51369;49.862;9.908;2023-05-10T05:39:46;4.88;;;1.50;;
64875;SDS011;51369;49.862;9.908;2023-05-10T05:42:12;4.00;;;1.40;;
64875;SDS011;51369;49.862;9.908;2023-05-10T05:44:38;3.65;;;1.40;;
64875;SDS011;51369;49.862;9.908;2023-05-10T05:47:03;3.45;;;1.80;;
64875;SDS011;51369;49.862;9.908;2023-05-10T05:49:29;1.75;;;1.42;;
64875;SDS011;51369;49.862;9.908;2023-05-10T05:51:58;2.13;;;1.33;;
64875;SDS011;51369;49.862;9.908;2023-05-10T05:54:24;1.50;;;1.40;;
64875;SDS011;51369;49.862;9.908;2023-05-10T05:56:49;6.00;;;1.60;;
64875;SDS011;51369;49.862;9.908;2023-05-10T05:59:14;4.78;;;1.48;;
64875;SDS011;51369;49.862;9.908;2023-05-10T06:01:40;1.80;;;1.70;;
64875;SDS011;51369;49.862;9.908;2023-05-10T06:04:05;2.55;;;1.50;;
64875;SDS011;51369;49.862;9.908;2023-05-10T06:06:30;1.70;;;1.60;;
64875;SDS011;51369;49.862;9.908;2023-05-10T06:08:57;2.45;;;1.70;;
64875;SDS011;51369;49.862;9.908;2023-05-10T06:11:22;1.90;;;1.80;;
64875;SDS011;51369;49.862;9.908;2023-05-10T06:13:48;1.70;;;1.60;;
64875;SDS011;51369;49.862;9.908;2023-05-10T06:16:13;4.05;;;1.40;;
64875;SDS011;51369;49.862;9.908;2023-05-10T06:18:38;6.30;;;1.63;;
64875;SDS011;51369;49.862;9.908;2023-05-10T06:21:04;2.65;;;1.77;;
64875;SDS011;51369;49.862;9.908;2023-05-10T06:23:29;4.60;;;1.60;;
64875;SDS011;51369;49.862;9.908;2023-05-10T06:25:55;7.35;;;2.47;;
64875;SDS011;51369;49.862;9.908;2023-05-10T06:28:20;2.97;;;1.90;;
64875;SDS011;51369;49.862;9.908;2023-05-10T06:30:46;2.17;;;1.60;;
64875;SDS011;51369;49.862;9.908;2023-05-10T06:33:11;1.77;;;1.67;;
64875;SDS011;51369;49.862;9.908;2023-05-10T06:35:36;7.65;;;2.85;;
64875;SDS011;51369;49.862;9.908;2023-05-10T06:38:02;2.10;;;2.00;;
64875;SDS011;51369;49.862;9.908;2023-05-10T06:40:28;1.90;;;1.80;;
64875;SDS011;51369;49.862;9.908;2023-05-10T06:42:54;7.85;;;2.30;;
64875;SDS011;51369;49.862;9.908;2023-05-10T06:45:19;1.88;;;1.77;;
64875;SDS011;51369;49.862;9.908;2023-05-10T06:47:45;2.30;;;1.80;;
64875;SDS011;51369;49.862;9.908;2023-05-10T06:50:11;5.68;;;2.17;;
64875;SDS011;51369;49.862;9.908;2023-05-10T06:52:36;4.10;;;1.85;;
64875;SDS011;51369;49.862;9.908;2023-05-10T06:55:05;2.97;;;2.28;;
64875;SDS011;51369;49.862;9.908;2023-05-10T06:57:32;4.30;;;2.08;;
64875;SDS011;51369;49.862;9.908;2023-05-10T07:00:00;3.33;;;2.72;;
64875;SDS011;51369;49.862;9.908;2023-05-10T07:02:26;3.40;;;2.30;;
64875;SDS011;51369;49.862;9.908;2023-05-10T07:04:52;3.42;;;2.33;;
64875;SDS011;51369;49.862;9.908;2023-05-10T07:07:17;4.00;;;2.67;;
64875;SDS011;51369;49.862;9.908;2023-05-10T07:09:43;3.47;;;2.33;;
64875;SDS011;51369;49.862;9.908;2023-05-10T07:12:08;2.67;;;2.47;;
64875;SDS011;51369;49.862;9.908;2023-05-10T07:14:34;2.50;;;2.30;;
64875;SDS011;51369;49.862;9.908;2023-05-10T07:17:00;2.40;;;2.05;;
64875;SDS011;51369;49.862;9.908;2023-05-10T07:19:25;2.60;;;2.40;;
64875;SDS011;51369;49.862;9.908;2023-05-10T07:21:51;2.60;;;2.10;;
64875;SDS011;51369;49.862;9.908;2023-05-10T07:24:17;3.33;;;2.35;;
64875;SDS011;51369;49.862;9.908;2023-05-10T07:26:43;4.10;;;2.58;;
64875;SDS011;51369;49.862;9.908;2023-05-10T07:29:08;8.45;;;2.85;;
64875;SDS011;51369;49.862;9.908;2023-05-10T07:31:33;3.58;;;2.30;;
64875;SDS011;51369;49.862;9.908;2023-05-10T07:33:59;4.97;;;2.10;;
64875;SDS011;51369;49.862;9.908;2023-05-10T07:36:24;7.65;;;2.20;;
64875;SDS011;51369;49.862;9.908;2023-05-10T07:38:50;3.67;;;2.17;;
64875;SDS011;51369;49.862;9.908;2023-05-10T07:41:15;5.35;;;2.10;;
64875;SDS011;51369;49.862;9.908;2023-05-10T07:43:41;4.13;;;2.42;;
64875;SDS011;51369;49.862;9.908;2023-05-10T07:46:07;4.28;;;2.40;;
64875;SDS011;51369;49.862;9.908;2023-05-10T07:48:32;4.00;;;2.50;;
64875;SDS011;51369;49.862;9.908;2023-05-10T07:50:57;4.20;;;2.40;;
64875;SDS011;51369;49.862;9.908;2023-05-10T07:53:23;2.72;;;2.10;;
64875;SDS011;51369;49.862;9.908;2023-05-10T07:55:51;3.55;;;2.22;;
64875;SDS011;51369;49.862;9.908;2023-05-10T07:58:21;5.93;;;2.42;;
64875;SDS011;51369;49.862;9.908;2023-05-10T08:00:47;6.10;;;2.55;;
64875;SDS011;51369;49.862;9.908;2023-05-10T08:03:13;2.20;;;2.00;;
64875;SDS011;51369;49.862;9.908;2023-05-10T08:05:39;7.88;;;2.45;;
64875;SDS011;51369;49.862;9.908;2023-05-10T08:08:04;5.25;;;2.42;;
64875;SDS011;51369;49.862;9.908;2023-05-10T08:10:30;3.38;;;2.30;;
64875;SDS011;51369;49.862;9.908;2023-05-10T08:12:55;5.40;;;2.40;;
64875;SDS011;51369;49.862;9.908;2023-05-10T08:15:20;5.70;;;2.22;;
64875;SDS011;51369;49.862;9.908;2023-05-10T08:17:46;3.38;;;2.10;;
64875;SDS011;51369;49.862;9.908;2023-05-10T08:20:11;4.35;;;2.58;;
64875;SDS011;51369;49.862;9.908;2023-05-10T08:22:37;6.75;;;2.15;;
64875;SDS011;51369;49.862;9.908;2023-05-10T08:25:03;3.53;;;2.22;;
64875;SDS011;51369;49.862;9.908;2023-05-10T08:27:29;3.85;;;2.15;;
64875;SDS011;51369;49.862;9.908;2023-05-10T08:29:54;3.50;;;2.20;;
64875;SDS011;51369;49.862;9.908;2023-05-10T08:32:19;6.75;;;2.50;;
64875;SDS011;51369;49.862;9.908;2023-05-10T08:34:45;3.47;;;3.05;;
64875;SDS011;51369;49.862;9.908;2023-05-10T08:37:10;5.00;;;2.20;;
64875;SDS011;51369;49.862;9.908;2023-05-10T08:39:38;6.60;;;2.03;;
64875;SDS011;51369;49.862;9.908;2023-05-10T08:42:04;6.18;;;2.15;;
64875;SDS011;51369;49.862;9.908;2023-05-10T08:44:34;5.78;;;1.83;;
64875;SDS011;51369;49.862;9.908;2023-05-10T08:47:05;2.85;;;2.15;;
64875;SDS011;51369;49.862;9.908;2023-05-10T08:49:32;5.13;;;2.20;;
64875;SDS011;51369;49.862;9.908;2023-05-10T08:51:58;5.53;;;2.08;;
64875;SDS011;51369;49.862;9.908;2023-05-10T08:54:29;2.95;;;1.65;;
64875;SDS011;51369;49.862;9.908;2023-05-10T08:56:55;7.55;;;1.75;;
64875;SDS011;51369;49.862;9.908;2023-05-10T08:59:21;5.30;;;2.10;;
64875;SDS011;51369;49.862;9.908;2023-05-10T09:01:47;12.23;;;3.00;;
64875;SDS011;51369;49.862;9.908;2023-05-10T09:04:14;3.85;;;1.90;;
64875;SDS011;51369;49.862;9.908;2023-05-10T09:06:40;4.82;;;2.28;;
64875;SDS011;51369;49.862;9.908;2023-05-10T09:09:06;4.22;;;2.28;;
64875;SDS011;51369;49.862;9.908;2023-05-10T09:11:31;4.05;;;1.73;;
64875;SDS011;51369;49.862;9.908;2023-05-10T09:13:57;4.68;;;2.00;;
64875;SDS011;51369;49.862;9.908;2023-05-10T09:16:23;7.15;;;2.97;;
64875;SDS011;51369;49.862;9.908;2023-05-10T09:18:49;6.07;;;2.53;;
64875;SDS011;51369;49.862;9.908;2023-05-10T09:21:14;6.63;;;1.85;;
64875;SDS011;51369;49.862;9.908;2023-05-10T09:23:44;3.10;;;2.00;;
64875;SDS011;51369;49.862;9.908;2023-05-10T09:26:10;5.38;;;2.22;;
64875;SDS011;51369;49.862;9.908;2023-05-10T09:28:51;3.40;;;2.05;;
64875;SDS011;51369;49.862;9.908;2023-05-10T09:31:18;5.00;;;1.90;;
64875;SDS011;51369;49.862;9.908;2023-05-10T09:33:47;3.42;;;1.90;;
64875;SDS011;51369;49.862;9.908;2023-05-10T09:36:13;5.15;;;2.08;;
64875;SDS011;51369;49.862;9.908;2023-05-10T09:41:19;2.42;;;1.90;;
64875;SDS011;51369;49.862;9.908;2023-05-10T09:43:46;5.60;;;2.03;;
64875;SDS011;51369;49.862;9.908;2023-05-10T09:46:12;3.28;;;2.25;;
64875;SDS011;51369;49.862;9.908;2023-05-10T09:48:41;5.05;;;2.35;;
64875;SDS011;51369;49.862;9.908;2023-05-10T09:51:09;2.35;;;2.08;;
64875;SDS011;51369;49.862;9.908;2023-05-10T09:53:34;2.70;;;1.80;;
64875;SDS011;51369;49.862;9.908;2023-05-10T09:56:00;5.85;;;2.33;;
64875;SDS011;51369;49.862;9.908;2023-05-10T09:58:25;2.63;;;1.60;;
64875;SDS011;51369;49.862;9.908;2023-05-10T10:00:51;2.22;;;2.03;;
64875;SDS011;51369;49.862;9.908;2023-05-10T10:03:18;5.38;;;1.85;;
64875;SDS011;51369;49.862;9.908;2023-05-10T10:05:44;3.28;;;2.03;;
64875;SDS011;51369;49.862;9.908;2023-05-10T10:08:11;4.10;;;1.85;;
64875;SDS011;51369;49.862;9.908;2023-05-10T10:10:38;8.65;;;2.00;;
64875;SDS011;51369;49.862;9.908;2023-05-10T10:13:05;8.93;;;2.22;;
64875;SDS011;51369;49.862;9.908;2023-05-10T10:15:32;4.65;;;2.08;;
64875;SDS011;51369;49.862;9.908;2023-05-10T10:17:58;1.80;;;1.70;;
64875;SDS011;51369;49.862;9.908;2023-05-10T10:20:25;3.33;;;2.10;;
64875;SDS011;51369;49.862;9.908;2023-05-10T10:22:51;4.57;;;2.10;;
64875;SDS011;51369;49.862;9.908;2023-05-10T10:25:18;2.88;;;2.05;;
64875;SDS011;51369;49.862;9.908;2023-05-10T10:32:59;1.95;;;1.77;;
64875;SDS011;51369;49.862;9.908;2023-05-10T10:35:35;5.20;;;1.70;;
64875;SDS011;51369;49.862;9.908;2023-05-10T10:38:01;3.42;;;1.90;;
64875;SDS011;51369;49.862;9.908;2023-05-10T10:40:28;2.58;;;1.50;;
64875;SDS011;51369;49.862;9.908;2023-05-10T10:42:57;4.43;;;1.77;;
64875;SDS011;51369;49.862;9.908;2023-05-10T10:45:23;2.28;;;1.80;;
64875;SDS011;51369;49.862;9.908;2023-05-10T10:47:53;3.92;;;1.80;;
64875;SDS011;51369;49.862;9.908;2023-05-10T10:50:47;1.73;;;1.63;;
64875;SDS011;51369;49.862;9.908;2023-05-10T10:53:21;5.18;;;1.70;;
64875;SDS011;51369;49.862;9.908;2023-05-10T10:55:47;2.75;;;1.40;;
64875;SDS011;51369;49.862;9.908;2023-05-10T10:58:28;1.75;;;1.33;;
64875;SDS011;51369;49.862;9.908;2023-05-10T11:01:15;3.15;;;1.50;;
64875;SDS011;51369;49.862;9.908;2023-05-10T11:03:54;5.38;;;1.58;;
64875;SDS011;51369;49.862;9.908;2023-05-10T11:06:30;1.75;;;1.50;;
64875;SDS011;51369;49.862;9.908;2023-05-10T11:09:05;1.88;;;1.52;;
64875;SDS011;51369;49.862;9.908;2023-05-10T11:11:32;3.28;;;1.95;;
64875;SDS011;51369;49.862;9.908;2023-05-10T11:14:03;1.58;;;1.48;;
64875;SDS011;51369;49.862;9.908;2023-05-10T11:16:40;2.55;;;1.40;;
64875;SDS011;51369;49.862;9.908;2023-05-10T11:19:07;3.60;;;1.42;;
64875;SDS011;51369;49.862;9.908;2023-05-10T11:21:44;1.80;;;1.40;;
64875;SDS011;51369;49.862;9.908;2023-05-10T11:24:14;5.40;;;1.60;;
64875;SDS011;51369;49.862;9.908;2023-05-10T11:26:41;2.65;;;1.38;;
64875;SDS011;51369;49.862;9.908;2023-05-10T11:29:07;2.05;;;1.50;;
64875;SDS011;51369;49.862;9.908;2023-05-10T11:31:32;4.10;;;1.65;;
64875;SDS011;51369;49.862;9.908;2023-05-10T11:33:58;2.20;;;1.60;;
64875;SDS011;51369;49.862;9.908;2023-05-10T11:36:27;3.17;;;1.60;;
64875;SDS011;51369;49.862;9.908;2023-05-10T11:38:54;2.22;;;1.48;;
64875;SDS011;51369;49.862;9.908;2023-05-10T11:41:21;4.78;;;1.50;;
64875;SDS011;51369;49.862;9.908;2023-05-10T11:43:49;1.10;;;1.02;;
64875;SDS011;51369;49.862;9.908;2023-05-10T11:46:16;6.25;;;1.42;;
64875;SDS011;51369;49.862;9.908;2023-05-10T11:48:45;1.50;;;1.30;;
64875;SDS011;51369;49.862;9.908;2023-05-10T11:51:14;1.98;;;1.38;;
64875;SDS011;51369;49.862;9.908;2023-05-10T11:53:39;1.13;;;1.00;;
64875;SDS011;51369;49.862;9.908;2023-05-10T11:56:05;3.22;;;1.25;;
64875;SDS011;51369;49.862;9.908;2023-05-10T11:58:35;1.35;;;1.10;;
64875;SDS011;51369;49.862;9.908;2023-05-10T12:01:02;3.90;;;1.48;;
64875;SDS011;51369;49.862;9.908;2023-05-10T12:03:29;2.22;;;1.20;;
64875;SDS011;51369;49.862;9.908;2023-05-10T12:05:55;5.60;;;1.80;;
64875;SDS011;51369;49.862;9.908;2023-05-10T12:08:22;2.47;;;1.27;;
64875;SDS011;51369;49.862;9.908;2023-05-10T12:10:48;2.17;;;1.70;;
64875;SDS011;51369;49.862;9.908;2023-05-10T12:13:14;4.10;;;1.60;;
64875;SDS011;51369;49.862;9.908;2023-05-10T12:15:40;1.67;;;1.23;;
64875;SDS011;51369;49.862;9.908;2023-05-10T12:18:10;2.80;;;1.50;;
64875;SDS011;51369;49.862;9.908;2023-05-10T12:20:37;2.13;;;1.30;;
64875;SDS011;51369;49.862;9.908;2023-05-10T12:23:03;3.70;;;1.20;;
64875;SDS011;51369;49.862;9.908;2023-05-10T12:25:31;1.50;;;1.38;;
64875;SDS011;51369;49.862;9.908;2023-05-10T12:28:02;1.55;;;1.38;;
64875;SDS011;51369;49.862;9.908;2023-05-10T12:30:32;2.25;;;1.30;;
64875;SDS011;51369;49.862;9.908;2023-05-10T12:32:59;3.40;;;1.42;;
64875;SDS011;51369;49.862;9.908;2023-05-10T12:35:29;1.63;;;1.25;;
64875;SDS011;51369;49.862;9.908;2023-05-10T12:37:55;1.92;;;1.20;;
64875;SDS011;51369;49.862;9.908;2023-05-10T12:40:21;5.40;;;1.50;;
64875;SDS011;51369;49.862;9.908;2023-05-10T12:42:46;8.45;;;1.77;;
64875;SDS011;51369;49.862;9.908;2023-05-10T12:45:12;1.95;;;1.50;;
64875;SDS011;51369;49.862;9.908;2023-05-10T12:47:38;2.40;;;1.15;;
64875;SDS011;51369;49.862;9.908;2023-05-10T12:50:03;4.30;;;1.02;;
64875;SDS011;51369;49.862;9.908;2023-05-10T12:52:29;6.78;;;1.40;;
64875;SDS011;51369;49.862;9.908;2023-05-10T12:54:57;4.07;;;0.90;;
64875;SDS011;51369;49.862;9.908;2023-05-10T12:57:22;3.53;;;0.85;;
64875;SDS011;51369;49.862;9.908;2023-05-10T12:59:48;1.23;;;1.13;;
64875;SDS011;51369;49.862;9.908;2023-05-10T13:02:13;3.70;;;0.90;;
64875;SDS011;51369;49.862;9.908;2023-05-10T13:04:39;3.42;;;0.93;;
64875;SDS011;51369;49.862;9.908;2023-05-10T13:07:06;1.15;;;1.08;;
64875;SDS011;51369;49.862;9.908;2023-05-10T13:09:31;2.17;;;1.42;;
64875;SDS011;51369;49.862;9.908;2023-05-10T13:11:57;6.40;;;1.23;;
64875;SDS011;51369;49.862;9.908;2023-05-10T13:14:22;6.13;;;1.00;;
64875;SDS011;51369;49.862;9.908;2023-05-10T13:16:48;1.27;;;0.75;;
64875;SDS011;51369;49.862;9.908;2023-05-10T13:19:13;4.82;;;1.10;;
64875;SDS011;51369;49.862;9.908;2023-05-10T13:21:39;1.13;;;0.93;;
64875;SDS011;51369;49.862;9.908;2023-05-10T13:24:06;1.02;;;1.02;;
64875;SDS011;51369;49.862;9.908;2023-05-10T13:26:32;2.50;;;1.00;;
64875;SDS011;51369;49.862;9.908;2023-05-10T13:28:57;2.88;;;1.10;;
64875;SDS011;51369;49.862;9.908;2023-05-10T13:31:22;3.03;;;1.05;;
64875;SDS011;51369;49.862;9.908;2023-05-10T13:33:48;1.70;;;1.52;;
64875;SDS011;51369;49.862;9.908;2023-05-10T13:36:14;3.22;;;1.45;;
64875;SDS011;51369;49.862;9.908;2023-05-10T13:38:39;2.53;;;1.15;;
64875;SDS011;51369;49.862;9.908;2023-05-10T13:41:04;3.05;;;1.20;;
64875;SDS011;51369;49.862;9.908;2023-05-10T13:43:30;2.25;;;1.60;;
64875;SDS011;51369;49.862;9.908;2023-05-10T13:45:55;1.25;;;1.15;;
64875;SDS011;51369;49.862;9.908;2023-05-10T13:48:21;5.65;;;1.30;;
64875;SDS011;51369;49.862;9.908;2023-05-10T13:50:46;2.42;;;1.38;;
64875;SDS011;51369;49.862;9.908;2023-05-10T13:53:12;1.45;;;1.17;;
64875;SDS011;51369;49.862;9.908;2023-05-10T13:55:37;5.22;;;1.17;;
64875;SDS011;51369;49.862;9.908;2023-05-10T13:58:03;3.03;;;1.60;;
64875;SDS011;51369;49.862;9.908;2023-05-10T14:00:28;1.52;;;1.30;;
64875;SDS011;51369;49.862;9.908;2023-05-10T14:02:53;2.05;;;1.35;;
64875;SDS011;51369;49.862;9.908;2023-05-10T14:05:19;3.33;;;1.60;;
64875;SDS011;51369;49.862;9.908;2023-05-10T14:07:45;4.47;;;1.40;;
64875;SDS011;51369;49.862;9.908;2023-05-10T14:10:10;1.95;;;1.27;;
64875;SDS011;51369;49.862;9.908;2023-05-10T14:12:35;2.15;;;1.60;;
64875;SDS011;51369;49.862;9.908;2023-05-10T14:15:01;5.05;;;1.88;;
64875;SDS011;51369;49.862;9.908;2023-05-10T14:17:27;2.85;;;1.52;;
64875;SDS011;51369;49.862;9.908;2023-05-10T14:19:53;2.05;;;1.63;;
64875;SDS011;51369;49.862;9.908;2023-05-10T14:22:18;1.83;;;1.35;;
64875;SDS011;51369;49.862;9.908;2023-05-10T14:24:44;1.95;;;1.45;;
64875;SDS011;51369;49.862;9.908;2023-05-10T14:27:12;7.93;;;1.80;;
64875;SDS011;51369;49.862;9.908;2023-05-10T14:29:37;2.22;;;1.45;;
64875;SDS011;51369;49.862;9.908;2023-05-10T14:32:03;6.05;;;1.70;;
64875;SDS011;51369;49.862;9.908;2023-05-10T14:34:28;7.18;;;1.50;;
64875;SDS011;51369;49.862;9.908;2023-05-10T14:36:53;2.92;;;1.52;;
64875;SDS011;51369;49.862;9.908;2023-05-10T14:39:20;5.30;;;1.52;;
64875;SDS011;51369;49.862;9.908;2023-05-10T14:41:45;1.92;;;1.58;;
64875;SDS011;51369;49.862;9.908;2023-05-10T14:44:12;4.38;;;1.40;;
64875;SDS011;51369;49.862;9.908;2023-05-10T14:46:37;1.60;;;1.50;;
64875;SDS011;51369;49.862;9.908;2023-05-10T14:49:03;2.03;;;1.52;;
64875;SDS011;51369;49.862;9.908;2023-05-10T14:51:28;2.97;;;1.48;;
64875;SDS011;51369;49.862;9.908;2023-05-10T14:53:54;2.63;;;1.80;;
64875;SDS011;51369;49.862;9.908;2023-05-10T14:56:19;3.10;;;1.60;;
64875;SDS011;51369;49.862;9.908;2023-05-10T14:58:46;3.78;;;1.67;;
64875;SDS011;51369;49.862;9.908;2023-05-10T15:01:11;3.92;;;1.88;;
64875;SDS011;51369;49.862;9.908;2023-05-10T15:03:37;2.22;;;1.73;;
64875;SDS011;51369;49.862;9.908;2023-05-10T15:06:03;5.38;;;2.22;;
64875;SDS011;51369;49.862;9.908;2023-05-10T15:08:29;1.65;;;1.55;;